Time;durP1;ratioP1;P1;durP2;ratioP2;P2;SDS_P1;SDS_P2;PMS_P1;PMS_P2;Temp;Humidity;BMP_temperature;BMP_pressure;BME280_temperature;BME280_humidity;BME280_pressure;Samples;Min_cycle;Max_cycle;Signal;HPM_P1;HPM_P2
2022/08/18 00:01:17;;;;;;;7.07;6.38;;;22.90;45.60;;;;;;5072644;28;20786;-52
2022/08/18 00:03:44;;;;;;;6.82;6.18;;;22.90;45.10;;;;;;5092418;28;20050;-54
2022/08/18 00:06:10;;;;;;;8.68;7.82;;;22.90;45.50;;;;;;5071955;28;20029;-49
2022/08/18 00:08:35;;;;;;;7.38;6.57;;;22.80;46.10;;;;;;5092318;28;20031;-52
2022/08/18 00:11:01;;;;;;;7.82;7.03;;;22.80;46.10;;;;;;5070948;28;20033;-50
2022/08/18 00:13:26;;;;;;;7.32;6.63;;;22.80;46.30;;;;;;5092291;28;20039;-54
2022/08/18 00:15:52;;;;;;;7.40;6.65;;;22.70;47.00;;;;;;5072355;28;20301;-50
2022/08/18 00:18:18;;;;;;;7.63;6.78;;;22.70;47.00;;;;;;5070275;28;20680;-53
2022/08/18 00:20:44;;;;;;;7.22;6.28;;;22.60;47.40;;;;;;5091211;28;20028;-49
2022/08/18 00:23:09;;;;;;;7.97;6.90;;;22.60;47.70;;;;;;5070391;28;20035;-49
2022/08/18 00:25:35;;;;;;;7.05;6.35;;;22.50;48.00;;;;;;5091203;28;20111;-51
2022/08/18 00:28:00;;;;;;;7.78;6.97;;;22.50;48.10;;;;;;5068389;28;20442;-51
2022/08/18 00:30:26;;;;;;;11.73;8.00;;;22.50;49.10;;;;;;5090892;28;20369;-53
2022/08/18 00:32:56;;;;;;;7.78;6.80;;;22.40;49.30;;;;;;5069653;28;20079;-51
2022/08/18 00:35:27;;;;;;;7.85;7.05;;;22.40;49.70;;;;;;5091216;28;20122;-50
2022/08/18 00:37:54;;;;;;;9.57;7.78;;;22.40;50.20;;;;;;5056886;28;20040;-47
2022/08/18 00:40:24;;;;;;;8.75;7.25;;;22.40;52.40;;;;;;5090791;28;20048;-53
2022/08/18 00:42:53;;;;;;;8.73;7.45;;;22.40;49.90;;;;;;5069604;28;20036;-49
2022/08/18 00:45:24;;;;;;;8.48;7.32;;;22.40;50.00;;;;;;5091242;28;20383;-49
2022/08/18 00:47:49;;;;;;;8.90;8.00;;;22.40;52.40;;;;;;5069402;28;20016;-53
2022/08/18 00:50:20;;;;;;;10.68;8.60;;;22.40;52.00;;;;;;5090579;28;20067;-50
2022/08/18 00:52:59;;;;;;;9.63;7.80;;;22.40;50.80;;;;;;5062869;28;20097;-47
2022/08/18 00:55:28;;;;;;;10.43;7.75;;;22.40;50.70;;;;;;5050875;28;20028;-46
2022/08/18 00:58:00;;;;;;;8.75;7.88;;;22.40;50.50;;;;;;5073773;28;20122;-48
2022/08/18 01:00:26;;;;;;;13.38;8.55;;;22.40;50.70;;;;;;5050873;28;20057;-53
2022/08/18 01:02:55;;;;;;;9.88;8.85;;;22.40;50.80;;;;;;5073422;28;20071;-49
2022/08/18 01:05:46;;;;;;;10.10;8.55;;;22.40;50.90;;;;;;5090593;28;20035;-47
2022/08/18 01:08:14;;;;;;;10.40;8.27;;;22.40;52.20;;;;;;5065747;28;20025;-53
2022/08/18 01:10:40;;;;;;;12.40;8.65;;;22.40;51.00;;;;;;5090211;28;20119;-50
2022/08/18 01:13:07;;;;;;;11.10;8.27;;;22.40;52.20;;;;;;5069375;28;20048;-54
2022/08/18 01:15:32;;;;;;;9.02;8.13;;;22.30;50.90;;;;;;5090106;28;20028;-48
2022/08/18 01:23:47;;;;;;;9.82;8.45;;;22.40;51.70;;;;;;5050428;28;20047;-48
2022/08/18 01:26:15;;;;;;;10.30;8.52;;;22.40;51.00;;;;;;5089744;28;20582;-51
2022/08/18 01:28:44;;;;;;;11.40;8.27;;;22.40;50.90;;;;;;5090436;28;20081;-50
2022/08/18 01:31:12;;;;;;;9.77;7.88;;;22.30;51.10;;;;;;5075975;28;20048;-52
2022/08/18 01:33:41;;;;;;;11.40;8.52;;;22.30;51.40;;;;;;5068634;28;20500;-48
2022/08/18 01:36:19;;;;;;;11.88;7.45;;;22.20;51.30;;;;;;5081790;28;20032;-52
2022/08/18 01:38:50;;;;;;;9.85;7.90;;;22.20;52.00;;;;;;5049941;28;20033;-47
2022/08/18 01:41:21;;;;;;;9.40;7.80;;;22.20;52.30;;;;;;5088766;28;20442;-51
2022/08/18 01:43:47;;;;;;;8.85;7.07;;;22.10;52.00;;;;;;5090482;28;20032;-50
2022/08/18 01:46:18;;;;;;;8.93;6.70;;;22.10;51.70;;;;;;5070444;28;20025;-53
2022/08/18 01:48:44;;;;;;;9.52;6.43;;;22.00;51.90;;;;;;5050103;28;20111;-53
2022/08/18 01:51:12;;;;;;;9.85;7.63;;;21.90;52.30;;;;;;5088912;28;20037;-50
2022/08/18 01:53:37;;;;;;;8.05;7.22;;;21.90;52.80;;;;;;5068256;28;20520;-53
2022/08/18 01:56:04;;;;;;;9.93;7.65;;;21.80;53.90;;;;;;5088138;28;20032;-50
2022/08/18 01:58:31;;;;;;;9.00;7.50;;;21.80;54.30;;;;;;5068350;28;20024;-54
2022/08/18 02:01:00;;;;;;;7.70;6.90;;;21.70;54.10;;;;;;5089323;28;20467;-52
2022/08/18 02:03:33;;;;;;;8.90;7.00;;;21.70;54.40;;;;;;5067826;28;20028;-52
2022/08/18 02:06:01;;;;;;;9.57;7.47;;;21.70;54.30;;;;;;5049779;28;20049;-53
2022/08/18 02:08:28;;;;;;;11.32;7.97;;;21.70;54.80;;;;;;5070081;28;20033;-53
2022/08/18 02:10:53;;;;;;;9.38;7.00;;;21.60;54.90;;;;;;5089275;28;20055;-51
2022/08/18 02:13:19;;;;;;;9.65;7.13;;;21.60;55.00;;;;;;5068172;28;20056;-54
2022/08/18 02:15:45;;;;;;;8.98;7.53;;;21.60;55.10;;;;;;5088974;28;20118;-53
2022/08/18 02:18:19;;;;;;;8.40;7.28;;;21.50;55.00;;;;;;5068000;28;20032;-49
2022/08/18 02:20:44;;;;;;;10.30;7.85;;;21.50;57.00;;;;;;5089292;28;20480;-52
2022/08/18 02:23:11;;;;;;;8.77;7.93;;;21.40;56.10;;;;;;5068144;28;20081;-52
2022/08/18 02:25:37;;;;;;;8.90;8.00;;;21.40;56.50;;;;;;5088898;28;20428;-53
2022/08/18 02:28:04;;;;;;;10.38;7.75;;;21.40;56.90;;;;;;5067973;28;20032;-52
2022/08/18 02:30:30;;;;;;;9.05;8.02;;;21.30;57.50;;;;;;5088369;28;20028;-52
2022/08/18 02:32:57;;;;;;;8.98;7.80;;;21.30;58.40;;;;;;5067635;28;20040;-52
2022/08/18 02:35:24;;;;;;;10.48;8.23;;;21.30;59.00;;;;;;5089026;28;20028;-55
2022/08/18 02:37:49;;;;;;;8.82;7.82;;;21.20;57.80;;;;;;5060697;28;20107;-54
2022/08/18 02:40:16;;;;;;;10.70;8.55;;;21.30;57.90;;;;;;5088607;28;20129;-52
2022/08/18 02:42:44;;;;;;;9.38;7.65;;;21.30;58.30;;;;;;5077699;28;20028;-54
2022/08/18 02:45:10;;;;;;;8.70;7.82;;;21.30;57.30;;;;;;5069468;28;20108;-54
2022/08/18 02:47:35;;;;;;;9.73;7.97;;;21.30;57.50;;;;;;5086595;28;20474;-54
2022/08/18 02:50:01;;;;;;;9.18;8.18;;;21.30;58.10;;;;;;5069555;28;20028;-53
2022/08/18 02:52:31;;;;;;;9.70;7.97;;;21.30;58.00;;;;;;5085534;28;20115;-53
2022/08/18 02:54:57;;;;;;;8.93;8.02;;;21.30;57.80;;;;;;5069082;28;20024;-50
2022/08/18 02:57:23;;;;;;;8.13;7.25;;;21.30;57.80;;;;;;5086371;28;20040;-48
2022/08/18 02:59:48;;;;;;;7.93;6.68;;;21.30;57.80;;;;;;5089170;28;20149;-52
2022/08/18 03:02:14;;;;;;;9.82;7.90;;;21.30;57.60;;;;;;5073000;28;20046;-50
2022/08/18 03:04:39;;;;;;;7.68;6.65;;;21.30;57.90;;;;;;5089085;28;20105;-49
2022/08/18 03:07:07;;;;;;;10.82;7.55;;;21.20;57.70;;;;;;5071682;28;20034;-51
2022/08/18 03:09:33;;;;;;;7.68;6.70;;;21.20;58.30;;;;;;5089064;28;20028;-49
2022/08/18 03:11:59;;;;;;;8.68;7.60;;;21.20;58.30;;;;;;5070554;28;20020;-51
2022/08/18 03:14:25;;;;;;;8.18;7.38;;;21.10;58.80;;;;;;5089293;28;20499;-49
2022/08/18 03:16:51;;;;;;;9.48;7.40;;;21.10;59.20;;;;;;5069301;28;20709;-50
2022/08/18 03:19:16;;;;;;;8.43;7.35;;;21.00;59.70;;;;;;5088981;28;20236;-48
2022/08/18 03:21:45;;;;;;;8.13;7.00;;;20.90;60.80;;;;;;5068035;28;20116;-49
2022/08/18 03:24:12;;;;;;;8.90;7.15;;;20.90;61.20;;;;;;5089240;28;20091;-49
2022/08/18 03:26:42;;;;;;;8.20;7.28;;;20.80;61.80;;;;;;5069188;28;20032;-50
2022/08/18 03:29:09;;;;;;;7.97;7.07;;;20.80;62.00;;;;;;5068767;28;20120;-50
2022/08/18 03:31:36;;;;;;;9.68;7.40;;;20.70;62.00;;;;;;5078569;28;20520;-49
2022/08/18 03:34:03;;;;;;;8.93;7.43;;;20.70;62.40;;;;;;5086897;28;20032;-48
2022/08/18 03:36:30;;;;;;;9.05;7.60;;;20.70;62.30;;;;;;5072335;28;20036;-49
2022/08/18 03:38:56;;;;;;;9.25;7.18;;;20.70;62.90;;;;;;5086904;28;20040;-48
2022/08/18 03:41:24;;;;;;;8.00;7.20;;;20.60;63.00;;;;;;5068970;28;20051;-48
2022/08/18 03:43:50;;;;;;;10.07;7.82;;;20.60;63.30;;;;;;5068630;28;20024;-47
2022/08/18 03:46:19;;;;;;;9.35;7.50;;;20.50;63.80;;;;;;5088184;28;20035;-47
2022/08/18 03:48:46;;;;;;;9.43;7.97;;;20.50;64.50;;;;;;5066949;28;20506;-48
2022/08/18 03:51:21;;;;;;;8.93;7.20;;;20.50;64.50;;;;;;5088236;28;20036;-49
2022/08/18 03:53:48;;;;;;;9.00;7.97;;;20.50;64.90;;;;;;5066528;28;20055;-51
2022/08/18 03:56:17;;;;;;;8.73;7.05;;;20.40;64.80;;;;;;5088126;28;20051;-47
2022/08/18 03:58:49;;;;;;;10.13;7.35;;;20.40;65.20;;;;;;5066601;28;20029;-47
2022/08/18 04:01:17;;;;;;;8.02;7.22;;;20.30;66.00;;;;;;5048516;28;20040;-48
2022/08/18 04:03:45;;;;;;;9.50;7.07;;;20.30;66.10;;;;;;5071571;28;20032;-53
2022/08/18 04:06:18;;;;;;;12.52;7.97;;;20.30;66.70;;;;;;5091573;28;20070;-46
2022/08/18 04:08:45;;;;;;;8.90;7.20;;;20.30;67.00;;;;;;5066521;28;20396;-47
2022/08/18 04:11:13;;;;;;;8.43;7.63;;;20.20;66.90;;;;;;5091599;28;20633;-48
2022/08/18 04:13:39;;;;;;;9.27;7.22;;;20.20;67.50;;;;;;5070341;28;20119;-49
2022/08/18 04:16:05;;;;;;;8.18;7.38;;;20.30;67.10;;;;;;5091562;28;20070;-50
2022/08/18 04:18:31;;;;;;;9.35;8.38;;;20.30;66.70;;;;;;5070291;28;20474;-47
2022/08/18 04:21:02;;;;;;;9.70;7.60;;;20.40;67.00;;;;;;5091340;28;20554;-54
2022/08/18 04:23:27;;;;;;;9.13;7.80;;;20.40;66.90;;;;;;5070071;28;20051;-54
2022/08/18 04:25:57;;;;;;;10.07;8.05;;;20.40;67.00;;;;;;5091104;28;20027;-52
2022/08/18 04:28:23;;;;;;;9.23;8.05;;;20.50;67.30;;;;;;5070151;28;20032;-49
2022/08/18 04:30:49;;;;;;;9.25;6.90;;;20.50;66.70;;;;;;5087703;28;20547;-52
2022/08/18 04:33:15;;;;;;;9.30;8.38;;;20.60;66.20;;;;;;5081265;28;20064;-51
2022/08/18 04:35:40;;;;;;;9.68;7.57;;;20.70;66.20;;;;;;5072002;28;20031;-49
2022/08/18 04:38:06;;;;;;;9.63;7.32;;;20.80;65.80;;;;;;5082613;28;20036;-49
2022/08/18 04:40:33;;;;;;;10.95;7.50;;;20.80;65.70;;;;;;5071744;28;20029;-50
2022/08/18 04:43:00;;;;;;;10.90;8.20;;;20.90;65.60;;;;;;5089167;28;20628;-52
2022/08/18 04:45:26;;;;;;;8.15;7.35;;;21.00;65.70;;;;;;5071755;28;20028;-50
2022/08/18 04:47:52;;;;;;;8.95;8.05;;;21.10;65.20;;;;;;5088975;28;20421;-49
2022/08/18 04:50:17;;;;;;;8.52;7.60;;;21.20;65.00;;;;;;5071709;28;20040;-52
2022/08/18 04:55:28;;;;;;;10.27;7.45;;;21.40;64.60;;;;;;5091882;28;20181;-49
2022/08/18 04:57:54;;;;;;;8.50;7.57;;;21.40;64.50;;;;;;5077498;28;20028;-49
2022/08/18 05:00:19;;;;;;;11.30;7.60;;;21.50;64.40;;;;;;5071533;28;20052;-54
2022/08/18 05:02:45;;;;;;;8.25;7.25;;;21.60;64.10;;;;;;5080263;28;20110;-55
2022/08/18 05:05:10;;;;;;;9.80;7.78;;;21.70;63.80;;;;;;5070877;28;20376;-52
2022/08/18 05:07:43;;;;;;;8.18;7.35;;;21.90;63.40;;;;;;5074082;28;20024;-52
2022/08/18 05:10:10;;;;;;;10.65;7.97;;;22.00;63.00;;;;;;5091403;28;20028;-55
2022/08/18 05:12:35;;;;;;;8.93;7.32;;;22.20;62.20;;;;;;5074264;28;20028;-54
2022/08/18 05:15:01;;;;;;;8.85;8.00;;;22.40;61.20;;;;;;5073082;28;20443;-51
2022/08/18 05:17:27;;;;;;;10.20;8.50;;;22.50;60.90;;;;;;5072106;28;20029;-49
2022/08/18 05:19:53;;;;;;;8.73;7.82;;;22.60;60.50;;;;;;5091229;28;20028;-55
2022/08/18 05:22:19;;;;;;;8.27;7.25;;;22.80;60.10;;;;;;5071537;28;20107;-53
2022/08/18 05:24:45;;;;;;;10.35;7.45;;;22.90;59.80;;;;;;5091170;28;20073;-51
2022/08/18 05:27:12;;;;;;;8.85;7.95;;;23.10;59.20;;;;;;5070344;28;20025;-55
2022/08/18 05:29:37;;;;;;;9.10;7.35;;;23.30;58.70;;;;;;5090752;28;20043;-48
2022/08/18 05:32:06;;;;;;;9.68;7.88;;;23.40;58.30;;;;;;5071085;28;20040;-55
2022/08/18 05:34:33;;;;;;;9.25;7.25;;;23.50;58.20;;;;;;5070468;28;20029;-49
2022/08/18 05:37:36;;;;;;;8.45;7.50;;;23.50;57.70;;;;;;5074243;28;20082;-53
2022/08/18 05:40:06;;;;;;;8.20;6.93;;;23.60;57.40;;;;;;5015721;28;20593;-53
2022/08/18 05:42:37;;;;;;;9.77;7.35;;;23.60;57.40;;;;;;5088693;28;20514;-55
2022/08/18 05:45:10;;;;;;;9.05;7.70;;;23.70;56.20;;;;;;5089094;28;20418;-55
2022/08/18 05:47:35;;;;;;;8.88;7.85;;;23.90;55.00;;;;;;5056207;28;20111;-53
2022/08/18 05:50:09;;;;;;;9.95;8.50;;;24.00;54.10;;;;;;5069912;28;20124;-56
2022/08/18 05:52:50;;;;;;;9.40;8.20;;;24.00;51.70;;;;;;5065028;28;20040;-55
2022/08/18 05:58:19;;;;;;;14.35;8.30;;;24.20;50.20;;;;;;5064182;28;20042;-54
2022/08/18 06:00:58;;;;;;;10.43;7.97;;;24.40;47.00;;;;;;5050312;28;20036;-54
2022/08/18 06:03:31;;;;;;;8.52;7.72;;;24.60;44.20;;;;;;5068777;28;20032;-55
2022/08/18 06:06:17;;;;;;;10.40;8.25;;;24.80;46.30;;;;;;5050128;28;20039;-55
2022/08/18 06:08:55;;;;;;;9.13;8.10;;;24.90;41.30;;;;;;5060637;28;20029;-49
2022/08/18 06:11:20;;;;;;;10.20;8.27;;;25.10;42.50;;;;;;5052177;28;20041;-53
2022/08/18 06:13:46;;;;;;;9.27;8.23;;;25.20;42.80;;;;;;5067862;28;20063;-55
2022/08/18 06:16:54;;;;;;;11.70;7.63;;;25.20;42.40;;;;;;5089373;28;20035;-53
2022/08/18 06:19:40;;;;;;;10.73;8.65;;;25.40;40.10;;;;;;5043585;28;20615;-55
2022/08/18 06:22:38;;;;;;;9.45;8.23;;;25.40;41.10;;;;;;5049591;28;20128;-54
2022/08/18 06:25:41;;;;;;;9.50;7.35;;;25.50;39.10;;;;;;5045019;28;20040;-52
2022/08/18 06:28:12;;;;;;;8.18;6.80;;;25.70;39.50;;;;;;5086556;28;20036;-55
2022/08/18 06:30:41;;;;;;;12.82;8.45;;;25.90;40.10;;;;;;5088037;28;20032;-55
2022/08/18 06:33:09;;;;;;;10.90;8.05;;;26.00;36.80;;;;;;5074432;28;20043;-49
2022/08/18 06:35:43;;;;;;;10.13;7.70;;;26.10;37.70;;;;;;5089655;28;20063;-49
2022/08/18 06:38:39;;;;;;;7.93;7.13;;;26.40;36.80;;;;;;5061873;28;20144;-55
2022/08/18 06:41:32;;;;;;;9.13;8.23;;;26.80;31.50;;;;;;5049448;28;20110;-52
2022/08/18 06:44:02;;;;;;;8.73;7.78;;;27.30;34.00;;;;;;5075330;28;20044;-55
2022/08/18 06:46:48;;;;;;;10.82;6.60;;;27.50;33.90;;;;;;5049305;28;20032;-51
2022/08/18 06:49:50;;;;;;;11.18;7.50;;;27.70;32.00;;;;;;5065323;28;20369;-55
2022/08/18 06:52:21;;;;;;;10.00;7.78;;;27.90;30.50;;;;;;5038324;28;20493;-52
2022/08/18 06:54:48;;;;;;;10.63;6.88;;;27.90;31.40;;;;;;5049521;28;20036;-53
2022/08/18 06:57:52;;;;;;;11.45;8.77;;;27.90;32.10;;;;;;5084532;28;20124;-55
2022/08/18 07:00:18;;;;;;;10.13;8.27;;;27.90;28.00;;;;;;5057060;28;20045;-55
2022/08/18 07:02:49;;;;;;;10.30;8.48;;;27.90;30.70;;;;;;5069367;28;20043;-54
2022/08/18 07:05:19;;;;;;;11.40;8.57;;;27.90;28.60;;;;;;5088622;28;20381;-55
2022/08/18 07:07:57;;;;;;;9.75;8.75;;;27.90;29.30;;;;;;5068825;28;20081;-53
2022/08/18 07:10:39;;;;;;;7.82;6.95;;;28.00;29.40;;;;;;5070351;28;20025;-56
2022/08/18 07:13:06;;;;;;;11.05;7.53;;;28.10;28.60;;;;;;5057836;28;20075;-54
2022/08/18 07:15:32;;;;;;;10.60;7.70;;;28.30;28.60;;;;;;5088147;28;20035;-55
2022/08/18 07:18:06;;;;;;;12.25;8.65;;;28.30;28.10;;;;;;5071165;28;20040;-54
2022/08/18 07:20:45;;;;;;;14.90;8.52;;;28.40;25.70;;;;;;5086334;28;20078;-53
2022/08/18 07:23:27;;;;;;;9.27;7.75;;;28.60;26.20;;;;;;5046784;28;20314;-53
2022/08/18 07:26:03;;;;;;;10.10;7.90;;;29.00;24.20;;;;;;5073052;28;20021;-54
2022/08/18 07:28:43;;;;;;;7.70;6.95;;;29.30;24.40;;;;;;5085846;28;20024;-52
2022/08/18 07:31:37;;;;;;;9.65;7.13;;;29.50;24.90;;;;;;5074546;28;20493;-51
2022/08/18 07:34:14;;;;;;;10.60;7.85;;;29.50;23.30;;;;;;5082947;28;20101;-55
2022/08/18 07:36:52;;;;;;;10.98;7.88;;;29.60;24.90;;;;;;5048288;28;20496;-54
2022/08/18 07:39:35;;;;;;;7.70;7.00;;;29.70;24.40;;;;;;5065019;28;20040;-53
2022/08/18 07:42:00;;;;;;;10.73;7.43;;;29.70;23.30;;;;;;5058926;28;20036;-51
2022/08/18 07:44:38;;;;;;;12.10;8.40;;;29.60;24.10;;;;;;5068761;28;20040;-52
2022/08/18 07:47:15;;;;;;;10.32;8.13;;;29.40;23.80;;;;;;5062994;28;20055;-48
2022/08/18 07:49:43;;;;;;;10.10;7.32;;;29.30;23.70;;;;;;5066453;28;20033;-48
2022/08/18 07:52:23;;;;;;;9.15;7.78;;;29.30;24.00;;;;;;5090971;28;20059;-54
2022/08/18 07:55:13;;;;;;;10.70;8.50;;;29.40;23.20;;;;;;5068527;28;20476;-52
2022/08/18 07:58:11;;;;;;;13.10;8.52;;;29.50;22.80;;;;;;5056993;28;20028;-51
2022/08/18 08:00:48;;;;;;;8.20;7.18;;;29.60;22.80;;;;;;5070991;28;20029;-53
2022/08/18 08:03:42;;;;;;;9.77;7.40;;;29.60;23.20;;;;;;5060377;28;20051;-49
2022/08/18 08:06:22;;;;;;;10.23;7.50;;;29.60;20.60;;;;;;5051073;28;20504;-53
2022/08/18 08:09:01;;;;;;;9.52;7.70;;;29.60;22.60;;;;;;5069226;28;20024;-50
2022/08/18 08:11:37;;;;;;;14.90;8.15;;;29.50;22.00;;;;;;5050949;28;20064;-55
2022/08/18 08:14:03;;;;;;;11.38;8.40;;;29.30;22.60;;;;;;5073358;28;20028;-50
2022/08/18 08:16:44;;;;;;;10.13;7.53;;;29.20;22.60;;;;;;5071286;28;20029;-52
2022/08/18 08:19:40;;;;;;;9.15;8.25;;;29.20;22.60;;;;;;5074833;28;20058;-53
2022/08/18 08:22:15;;;;;;;10.25;9.18;;;29.10;21.30;;;;;;5051641;28;20489;-53
2022/08/18 08:24:51;;;;;;;8.47;7.50;;;28.80;22.60;;;;;;5059941;28;20041;-52
2022/08/18 08:27:37;;;;;;;10.18;9.02;;;28.90;22.70;;;;;;5051936;28;20508;-51
2022/08/18 08:30:15;;;;;;;14.57;8.93;;;28.80;21.80;;;;;;5069606;28;20035;-54
2022/08/18 08:33:05;;;;;;;8.90;7.53;;;28.70;22.10;;;;;;5089256;28;20040;-54
2022/08/18 08:36:06;;;;;;;11.10;7.75;;;28.80;21.80;;;;;;5091595;28;20052;-49
2022/08/18 08:38:43;;;;;;;7.68;6.97;;;29.00;21.40;;;;;;5062433;28;20495;-54
2022/08/18 08:41:18;;;;;;;9.85;7.78;;;29.20;21.30;;;;;;5091287;28;20024;-53
2022/08/18 08:43:51;;;;;;;8.50;7.60;;;29.50;21.30;;;;;;5066424;28;20043;-53
2022/08/18 08:46:31;;;;;;;10.18;7.82;;;29.60;21.20;;;;;;5051105;28;20116;-53
2022/08/18 08:49:06;;;;;;;7.63;6.90;;;29.80;19.50;;;;;;5069083;28;20020;-51
2022/08/18 08:51:45;;;;;;;9.18;7.15;;;30.10;20.50;;;;;;5051014;28;20029;-50
2022/08/18 08:54:19;;;;;;;11.73;8.25;;;30.60;18.00;;;;;;5061183;28;20115;-53
2022/08/18 08:56:48;;;;;;;11.10;7.50;;;30.60;19.50;;;;;;5050925;28;20104;-52
2022/08/18 08:59:17;;;;;;;9.15;8.07;;;30.80;19.20;;;;;;5076465;28;20032;-52
2022/08/18 09:02:20;;;;;;;10.05;7.22;;;31.20;19.00;;;;;;5090849;28;20266;-53
2022/08/18 09:04:56;;;;;;;9.15;6.70;;;31.70;15.40;;;;;;5065454;28;20028;-50
2022/08/18 09:07:27;;;;;;;;;;;32.10;15.80;;;;;;5051068;28;20025;-52
2022/08/18 09:10:34;;;;;;;7.25;6.55;;;32.30;12.00;;;;;;5070053;28;20411;-53
2022/08/18 09:13:18;;;;;;;10.85;7.13;;;32.50;12.70;;;;;;5052090;28;20055;-50
2022/08/18 09:16:14;;;;;;;8.20;7.40;;;32.80;12.10;;;;;;5090644;28;20047;-49
2022/08/18 09:19:03;;;;;;;8.00;6.80;;;32.70;11.50;;;;;;5062658;28;20028;-48
2022/08/18 09:22:03;;;;;;;9.43;6.93;;;32.90;12.00;;;;;;5050440;28;20041;-49
2022/08/18 09:24:37;;;;;;;8.70;7.55;;;32.70;10.90;;;;;;5068869;28;20401;-51
2022/08/18 09:27:21;;;;;;;8.40;6.77;;;33.00;12.40;;;;;;5050488;28;20035;-51
2022/08/18 09:29:56;;;;;;;5.93;5.43;;;33.40;9.80;;;;;;5071051;28;20032;-52
2022/08/18 09:32:21;;;;;;;9.00;6.22;;;33.90;11.20;;;;;;5049936;28;20048;-52
2022/08/18 09:35:27;;;;;;;8.70;5.22;;;33.90;9.50;;;;;;5070951;28;20032;-52
2022/08/18 09:44:13;;;;;;;7.65;6.20;;;34.10;7.70;;;;;;5061702;28;20499;-53
2022/08/18 09:46:41;;;;;;;8.32;5.72;;;34.20;4.60;;;;;;5049926;28;20041;-53
2022/08/18 09:49:39;;;;;;;7.93;5.13;;;34.20;6.70;;;;;;5086692;28;20566;-50
2022/08/18 09:52:47;;;;;;;6.28;4.80;;;34.50;4.80;;;;;;5049606;28;20037;-51
2022/08/18 09:55:15;;;;;;;7.25;5.00;;;34.80;3.70;;;;;;5066850;28;20025;-52
2022/08/18 09:57:40;;;;;;;7.20;5.57;;;35.00;4.00;;;;;;5088988;28;20085;-53
2022/08/18 10:00:10;;;;;;;5.95;4.68;;;34.80;4.00;;;;;;5068002;28;20032;-51
2022/08/18 10:02:35;;;;;;;5.53;4.70;;;34.90;3.70;;;;;;5089234;28;20050;-52
2022/08/18 10:05:28;;;;;;;5.68;5.18;;;35.20;3.90;;;;;;5068147;28;20036;-53
2022/08/18 10:08:05;;;;;;;7.25;5.13;;;35.00;2.40;;;;;;5049915;28;20440;-53
2022/08/18 10:10:43;;;;;;;5.53;5.03;;;34.80;2.60;;;;;;5049543;28;20557;-49
2022/08/18 10:13:11;;;;;;;8.52;5.65;;;34.70;2.60;;;;;;5050223;28;20036;-52
2022/08/18 10:16:04;;;;;;;5.80;5.30;;;34.50;3.10;;;;;;5089592;28;20383;-48
2022/08/18 10:19:16;;;;;;;5.30;4.90;;;34.30;2.50;;;;;;5055593;28;20047;-53
2022/08/18 10:22:03;;;;;;;9.82;5.57;;;34.30;3.40;;;;;;5089705;28;20035;-54
2022/08/18 10:24:54;;;;;;;7.35;6.15;;;34.20;2.50;;;;;;5073428;28;20036;-50
2022/08/18 10:27:44;;;;;;;8.15;5.97;;;33.90;3.10;;;;;;5049369;28;20400;-55
2022/08/18 10:30:59;;;;;;;5.90;5.35;;;33.60;3.40;;;;;;5065051;28;20029;-45
2022/08/18 10:33:52;;;;;;;5.65;5.15;;;33.60;4.70;;;;;;4971490;28;20046;-43
2022/08/18 10:36:38;;;;;;;6.25;4.88;;;33.80;3.90;;;;;;5006953;28;20137;-46
2022/08/18 10:39:09;;;;;;;7.50;5.15;;;34.10;3.00;;;;;;5051716;28;20044;-43
2022/08/18 10:42:02;;;;;;;7.50;5.18;;;34.10;3.10;;;;;;5048899;28;20037;-46
2022/08/18 10:44:33;;;;;;;9.02;5.93;;;34.00;2.20;;;;;;5069970;28;20077;-47
2022/08/18 10:46:59;;;;;;;5.65;5.15;;;33.80;2.50;;;;;;5049127;28;20043;-43
2022/08/18 10:49:27;;;;;;;4.82;4.30;;;33.80;2.80;;;;;;5086034;28;20020;-49
2022/08/18 10:52:20;;;;;;;4.82;4.43;;;33.80;1.80;;;;;;5069170;28;20090;-45
2022/08/18 10:55:07;;;;;;;8.18;4.93;;;33.90;1.90;;;;;;5074154;28;20020;-43
2022/08/18 10:58:18;;;;;;;5.05;4.50;;;34.00;2.00;;;;;;5048862;28;20397;-49
2022/08/18 11:00:54;;;;;;;4.63;4.10;;;33.90;2.40;;;;;;5048294;28;20032;-51
2022/08/18 11:03:31;;;;;;;5.65;4.78;;;33.90;1.00;;;;;;5049560;28;20029;-47
2022/08/18 11:06:05;;;;;;;7.47;5.18;;;33.80;1.00;;;;;;5089173;28;20028;-48
2022/08/18 11:08:37;;;;;;;5.93;4.87;;;33.80;1.10;;;;;;5052436;28;23479;-45
2022/08/18 11:11:10;;;;;;;5.25;4.18;;;33.80;1.40;;;;;;5087770;28;20059;-50
2022/08/18 11:14:17;;;;;;;9.07;4.90;;;33.90;1.60;;;;;;5073778;28;20024;-49
2022/08/18 11:17:07;;;;;;;8.05;4.80;;;33.90;1.00;;;;;;5093345;28;20042;-45
2022/08/18 11:19:37;;;;;;;4.68;4.28;;;33.80;1.00;;;;;;5082240;28;20127;-45
2022/08/18 11:22:03;;;;;;;6.97;4.90;;;33.80;1.00;;;;;;5073101;28;20404;-46
2022/08/18 11:24:34;;;;;;;5.65;4.47;;;33.80;1.00;;;;;;5083202;28;20032;-48
2022/08/18 11:27:17;;;;;;;5.93;4.78;;;33.80;1.00;;;;;;5052837;28;20041;-50
2022/08/18 11:29:43;;;;;;;6.47;4.97;;;33.90;1.00;;;;;;5075073;28;20099;-48
2022/08/18 11:32:28;;;;;;;5.63;5.18;;;34.00;1.00;;;;;;5073107;28;20128;-49
2022/08/18 11:34:57;;;;;;;5.57;4.50;;;33.90;1.00;;;;;;5064175;28;20032;-46
2022/08/18 11:37:35;;;;;;;5.50;4.88;;;34.00;1.00;;;;;;5091737;28;20070;-47
2022/08/18 11:40:04;;;;;;;4.90;3.92;;;34.00;1.00;;;;;;5064957;28;20496;-46
2022/08/18 11:42:33;;;;;;;4.63;3.97;;;34.10;1.00;;;;;;5092349;28;20039;-48
2022/08/18 11:45:11;;;;;;;5.05;4.40;;;34.20;1.00;;;;;;5070441;28;20025;-45
2022/08/18 11:47:37;;;;;;;5.70;5.05;;;34.20;1.00;;;;;;5052416;28;20032;-49
2022/08/18 11:50:11;;;;;;;4.85;4.45;;;34.10;1.00;;;;;;5073497;28;20111;-47
2022/08/18 11:52:50;;;;;;;4.40;4.03;;;34.00;1.00;;;;;;5091880;28;20034;-51
2022/08/18 11:55:41;;;;;;;4.80;4.07;;;34.00;1.00;;;;;;5070069;28;20035;-49
2022/08/18 11:58:07;;;;;;;4.82;4.40;;;34.20;1.00;;;;;;5048950;28;20132;-46
2022/08/18 12:00:42;;;;;;;4.88;4.28;;;34.20;1.00;;;;;;5070778;28;20096;-51
2022/08/18 12:03:25;;;;;;;5.18;4.20;;;34.40;1.00;;;;;;5092057;28;20027;-51
2022/08/18 12:05:55;;;;;;;7.28;4.57;;;34.50;1.00;;;;;;5057626;28;20040;-45
2022/08/18 12:08:36;;;;;;;5.32;4.82;;;34.40;1.00;;;;;;5067774;28;20484;-50
2022/08/18 12:11:26;;;;;;;8.00;4.80;;;34.50;1.00;;;;;;5061831;28;20642;-52
2022/08/18 12:14:09;;;;;;;9.07;5.28;;;34.30;1.00;;;;;;5064480;28;20388;-49
2022/08/18 12:16:42;;;;;;;5.63;4.63;;;34.20;1.00;;;;;;5079134;28;20103;-50
2022/08/18 12:19:11;;;;;;;4.30;3.88;;;34.20;1.00;;;;;;5075791;28;20468;-50
2022/08/18 12:21:58;;;;;;;6.78;4.45;;;34.20;1.00;;;;;;5075450;28;20029;-52
2022/08/18 12:24:29;;;;;;;6.93;4.28;;;34.00;1.00;;;;;;5061290;28;20028;-50
2022/08/18 12:26:57;;;;;;;5.68;4.65;;;33.90;1.00;;;;;;5057348;28;20043;-51
2022/08/18 12:29:23;;;;;;;6.53;5.38;;;33.90;1.00;;;;;;5077094;28;20020;-48
2022/08/18 12:31:51;;;;;;;6.78;6.07;;;33.70;1.00;;;;;;5069398;28;20544;-52
2022/08/18 12:34:18;;;;;;;6.72;5.80;;;33.50;1.00;;;;;;5073694;28;20702;-49
2022/08/18 12:36:44;;;;;;;7.45;6.32;;;33.10;2.70;;;;;;5072159;28;20020;-50
2022/08/18 12:39:10;;;;;;;6.13;5.53;;;32.60;3.60;;;;;;5076939;28;20122;-47
2022/08/18 12:41:36;;;;;;;6.32;4.75;;;32.40;2.80;;;;;;5073333;28;20096;-51
2022/08/18 12:44:01;;;;;;;6.03;4.80;;;32.50;2.50;;;;;;5076416;28;20038;-46
2022/08/18 12:46:29;;;;;;;6.68;4.88;;;32.60;3.00;;;;;;5091021;28;20032;-46
2022/08/18 12:48:54;;;;;;;6.47;5.15;;;32.60;3.20;;;;;;5072161;28;20048;-48
2022/08/18 12:51:20;;;;;;;4.90;4.45;;;32.70;3.80;;;;;;5090867;28;20105;-49
2022/08/18 12:53:45;;;;;;;5.00;4.32;;;32.80;3.80;;;;;;5071729;28;20024;-50
2022/08/18 12:56:24;;;;;;;5.10;4.55;;;32.90;3.90;;;;;;5090405;28;20059;-45
2022/08/18 12:58:51;;;;;;;5.43;4.93;;;33.00;5.30;;;;;;5071638;28;20036;-45
2022/08/18 13:01:18;;;;;;;5.15;4.63;;;33.10;4.20;;;;;;5091537;28;20056;-44
2022/08/18 13:03:45;;;;;;;5.88;4.35;;;33.20;4.50;;;;;;5070694;28;20040;-43
2022/08/18 13:06:11;;;;;;;6.00;4.88;;;33.20;4.70;;;;;;5091567;28;20021;-44
2022/08/18 13:08:37;;;;;;;6.72;5.07;;;33.20;4.70;;;;;;5070034;28;20120;-46
2022/08/18 13:11:09;;;;;;;6.10;4.45;;;33.10;4.70;;;;;;5091452;28;20032;-43
2022/08/18 13:13:39;;;;;;;6.40;4.63;;;33.00;4.80;;;;;;5071139;28;20032;-50
2022/08/18 13:16:07;;;;;;;5.30;4.80;;;33.00;5.00;;;;;;5071122;28;20614;-50
2022/08/18 13:18:36;;;;;;;6.57;4.88;;;32.90;5.10;;;;;;5090570;28;20063;-44
2022/08/18 13:21:03;;;;;;;7.15;4.38;;;32.90;5.30;;;;;;5090038;28;20036;-45
2022/08/18 13:23:29;;;;;;;6.80;3.95;;;33.00;5.60;;;;;;5076836;28;20030;-45
2022/08/18 13:25:56;;;;;;;5.20;4.70;;;33.00;5.90;;;;;;5069463;28;20040;-44
2022/08/18 13:28:22;;;;;;;8.73;5.50;;;33.00;6.30;;;;;;5090549;28;20111;-50
2022/08/18 13:30:49;;;;;;;4.13;3.75;;;32.90;6.50;;;;;;5071754;28;20115;-45
2022/08/18 13:33:15;;;;;;;5.50;4.70;;;32.80;6.60;;;;;;5090848;28;20088;-45
2022/08/18 13:35:41;;;;;;;5.10;4.60;;;32.70;6.60;;;;;;5059988;28;20505;-47
2022/08/18 13:38:06;;;;;;;9.63;5.10;;;32.60;7.80;;;;;;5070597;28;20037;-48